Ajax, Louisiana
Current Conditions -  °F | °C
As of 2:55 AM on Monday 22 Dec 2014 (Local Time) from KIER Reporting Station
Haze Haze  
Wind Chill: 50°   Ceiling: 300
Heat Index: 50°   Visibility: 4mi
Dew Point: 50°   Wind: 8mph
Humidity: 99%   Direction: 150°SSE
Pressure: 29.83"   Gusts: NA
Location:  31.7926°N, 93.4001°W
Report Text: KIER 220855Z AUTO 15007KT 4SM BR OVC003 10/10 A2983 RMK AO2 T01020101
Loading
Personal Weather Stations






























Interactive Weather Map New forecast layout! Learn more

10-Day Weather Forecast

Advertisements
Track Severe Weather on mobile